ADDS METAR Data INFO
IDs: Format: Raw Decoded Include TAF

Data at: 0405 UTC 11 Dec 2017

KDVK 110355Z AUTO 21006KT 10SM CLR 00/M06 A3012 RMK AO2
KDVK 110335Z AUTO 20007KT 10SM CLR 00/M06 A3011 RMK AO2
KDVK 110315Z AUTO 21007KT 10SM CLR 00/M06 A3011 RMK AO2
KDVK 110255Z AUTO 20007KT 10SM CLR 00/M06 A3010 RMK AO2
KDVK 110235Z AUTO 21007KT 10SM CLR 00/M07 A3010 RMK AO2
KDVK 110215Z AUTO 21006KT 10SM CLR 00/M07 A3010 RMK AO2
KDVK 110155Z AUTO 22006KT 10SM CLR 00/M07 A3010 RMK AO2
KDVK 110135Z AUTO 23009KT 10SM SCT120 01/M07 A3010 RMK AO2
KDVK 110115Z AUTO 23010KT 10SM SCT120 01/M07 A3009 RMK AO2
KDVK 110055Z AUTO 23007KT 10SM CLR 01/M07 A3009 RMK AO2
KDVK 110035Z AUTO 23006KT 10SM CLR 01/M07 A3009 RMK AO2
KDVK 110015Z AUTO 23006KT 10SM CLR 01/M07 A3008 RMK AO2
KDVK 102355Z AUTO 23008KT 10SM CLR 01/M07 A3007 RMK AO2
KDVK 102335Z AUTO 23007KT 10SM CLR 01/M07 A3007 RMK AO2
KDVK 102315Z AUTO 23007KT 10SM CLR 01/M07 A3006 RMK AO2
KDVK 102255Z AUTO 22008KT 10SM CLR 01/M07 A3005 RMK AO2
KDVK 102235Z AUTO 22010KT 10SM CLR 01/M07 A3005 RMK AO2
KDVK 102215Z AUTO 21009G15KT 10SM CLR 02/M07 A3003 RMK AO2
KDVK 102155Z AUTO 21011G17KT 10SM CLR 02/M07 A3003 RMK AO2
KDVK 102135Z AUTO 22012G20KT 10SM CLR 02/M07 A3004 RMK AO2
KDVK 102115Z AUTO 21013G17KT 10SM CLR 02/M07 A3005 RMK AO2
KDVK 102055Z AUTO 21011G17KT 10SM CLR 02/M07 A3005 RMK AO2
KDVK 102035Z AUTO 20009G16KT 160V230 10SM CLR 03/M07 A3006 RMK AO2
KDVK 102015Z AUTO 22013G17KT 10SM CLR 02/M07 A3007 RMK AO2
KDVK 101955Z AUTO 22009G14KT 10SM CLR 02/M07 A3008 RMK AO2
KDVK 101935Z AUTO 22009G17KT 10SM CLR 02/M07 A3008 RMK AO2
KDVK 101915Z AUTO 22010G15KT 10SM CLR 02/M07 A3010 RMK AO2
KDVK 101855Z AUTO 21012G16KT 10SM CLR 02/M07 A3011 RMK AO2
KDVK 101835Z AUTO 23009KT 10SM CLR 02/M07 A3012 RMK AO2
KDVK 101815Z AUTO 24011KT 10SM SCT110 01/M07 A3013 RMK AO2
KDVK 101755Z AUTO 23011G15KT 10SM BKN110 01/M07 A3015 RMK AO2
KDVK 101735Z AUTO 24008KT 10SM BKN120 00/M07 A3016 RMK AO2
KDVK 101715Z AUTO 23013KT 10SM OVC120 00/M07 A3016 RMK AO2
KDVK 101655Z AUTO 23010G16KT 10SM BKN120 00/M07 A3017 RMK AO2
KDVK 101635Z AUTO 22011G16KT 10SM CLR 00/M07 A3017 RMK AO2
KDVK 101615Z AUTO 22009G14KT 10SM SCT110 00/M07 A3019 RMK AO2
KDVK 101555Z AUTO 23009KT 10SM BKN110 M01/M07 A3020 RMK AO2
KDVK 101535Z AUTO 22009KT 10SM SCT110 M01/M07 A3020 RMK AO2
KDVK 101515Z AUTO 21006KT 10SM OVC110 M02/M07 A3020 RMK AO2
KDVK 101455Z AUTO 20007KT 10SM BKN100 M02/M07 A3021 RMK AO2
KDVK 101435Z AUTO 21007KT 10SM CLR M03/M08 A3021 RMK AO2
KDVK 101415Z AUTO 00000KT 10SM CLR M05/M08 A3021 RMK AO2
KDVK 101355Z AUTO 20003KT 10SM CLR M04/M07 A3022 RMK AO2
KDVK 101335Z AUTO 20003KT 10SM CLR M05/M08 A3022 RMK AO2
KDVK 101315Z AUTO 20004KT 10SM CLR M06/M08 A3021 RMK AO2
KDVK 101255Z AUTO 23003KT 10SM CLR M07/M10 A3021 RMK AO2
KDVK 101235Z AUTO 24003KT 10SM CLR M07/M09 A3021 RMK AO2
KDVK 101215Z AUTO 22003KT 10SM CLR M07/M10 A3020 RMK AO2
KDVK 101155Z AUTO 24003KT 10SM CLR M07/M09 A3020 RMK AO2
KDVK 101135Z AUTO 23004KT 10SM CLR M07/M09 A3019 RMK AO2
KDVK 101115Z AUTO 22004KT 10SM CLR M07/M09 A3019 RMK AO2
KDVK 101055Z AUTO 22004KT 10SM CLR M07/M09 A3019 RMK AO2
KDVK 101035Z AUTO 24004KT 10SM CLR M07/M09 A3018 RMK AO2
KDVK 101015Z AUTO 24003KT 10SM CLR M06/M09 A3018 RMK AO2
KDVK 100955Z AUTO 23004KT 10SM CLR M06/M09 A3017 RMK AO2
KDVK 100935Z AUTO 23005KT 10SM CLR M06/M09 A3017 RMK AO2
KDVK 100915Z AUTO 00000KT 10SM CLR M06/M08 A3017 RMK AO2
KDVK 100855Z AUTO 00000KT 10SM CLR M06/M09 A3017 RMK AO2
KDVK 100835Z AUTO 23005KT 10SM CLR M05/M08 A3017 RMK AO2
KDVK 100815Z AUTO 25003KT 10SM CLR M05/M09 A3017 RMK AO2
KDVK 100755Z AUTO 27004KT 10SM CLR M04/M09 A3017 RMK AO2
KDVK 100735Z AUTO 27007KT 10SM CLR M05/M08 A3017 RMK AO2
KDVK 100715Z AUTO 27007KT 10SM CLR M04/M09 A3016 RMK AO2
KDVK 100655Z AUTO 29006KT 10SM CLR M03/M08 A3015 RMK AO2
KDVK 100635Z AUTO 29006KT 10SM SCT037 M03/M08 A3014 RMK AO2
KDVK 100615Z AUTO 29007KT 10SM SCT037 M03/M08 A3015 RMK AO2
KDVK 100555Z AUTO 29007KT 10SM SCT039 M02/M08 A3014 RMK AO2
KDVK 100535Z AUTO 30008G15KT 10SM SCT039 M02/M08 A3014 RMK AO2
KDVK 100515Z AUTO 30011G15KT 10SM OVC039 M02/M08 A3013 RMK AO2
KDVK 100455Z AUTO 28007G14KT 10SM OVC037 M01/M08 A3013 RMK AO2
KDVK 100435Z AUTO 28010G16KT 10SM OVC037 M01/M08 A3013 RMK AO2
KDVK 100415Z AUTO 29010G18KT 10SM OVC037 M01/M08 A3012 RMK AO2
KDVK 100355Z AUTO 29011G15KT 10SM OVC037 M02/M08 A3011 RMK AO2
KDVK 100335Z AUTO 29010G16KT 10SM OVC037 M02/M08 A3011 RMK AO2
KDVK 100315Z AUTO 29012G16KT 10SM BKN037 BKN046 M02/M07 A3010 RMK AO2
KDVK 100255Z AUTO 30010G18KT 10SM CLR M02/M07 A3009 RMK AO2
KDVK 100235Z AUTO 30011G14KT 10SM CLR M02/M07 A3008 RMK AO2
KDVK 100215Z AUTO 29009G17KT 10SM SCT045 M02/M06 A3006 RMK AO2
KDVK 100155Z AUTO 29011KT 10SM SCT029 SCT040 OVC047 M01/M06 A3006 RMK AO2
KDVK 100135Z AUTO 30013G18KT 10SM BKN029 OVC040 M01/M05 A3005 RMK AO2
KDVK 100115Z AUTO 29011G15KT 10SM SCT017 OVC029 M01/M04 A3005 RMK AO2
KDVK 100055Z AUTO 27009G18KT 10SM SCT015 BKN029 OVC060 M01/M03 A3004 RMK AO2
KDVK 100035Z AUTO 26010G17KT 7SM -SN SCT008 BKN027 OVC060 M01/M03 A3003 RMK AO2
KDVK 100015Z AUTO 26008KT 7SM -SN SCT018 BKN024 OVC055 M01/M03 A3002 RMK AO2
KDVK 092355Z AUTO 25008KT 10SM -SN SCT024 BKN045 OVC055 M01/M03 A3001 RMK AO2
KDVK 092335Z AUTO 25006KT 7SM -SN SCT030 BKN036 OVC060 M01/M03 A3000 RMK AO2
KDVK 092315Z AUTO 26007KT 10SM -SN SCT037 SCT044 OVC060 M01/M03 A2998 RMK AO2
KDVK 092255Z AUTO 27007KT 7SM -SN SCT031 SCT038 OVC050 M01/M03 A2997 RMK AO2
KDVK 092235Z AUTO 27008KT 10SM -SN SCT016 SCT034 OVC060 M01/M03 A2996 RMK AO2
KDVK 092215Z AUTO 26008KT 10SM SCT016 OVC060 M01/M03 A2995 RMK AO2
KDVK 092155Z AUTO 26008KT 7SM -SN BKN016 BKN038 OVC060 M01/M03 A2994 RMK AO2
KDVK 092135Z AUTO 27007G15KT 4SM -SN OVC016 M01/M03 A2993 RMK AO2
KDVK 092115Z AUTO 27008KT 7SM -SN OVC018 M01/M04 A2991 RMK AO2
KDVK 092055Z AUTO 27008G16KT 7SM -SN OVC018 M01/M05 A2990 RMK AO2
KDVK 092035Z AUTO 27009G15KT 10SM -SN OVC020 M01/M05 A2989 RMK AO2
KDVK 092015Z AUTO 27009G15KT 10SM OVC022 M01/M05 A2987 RMK AO2
KDVK 091955Z AUTO 27010G17KT 10SM OVC024 M01/M05 A2986 RMK AO2
KDVK 091935Z AUTO 28009G17KT 10SM BKN028 OVC033 00/M06 A2985 RMK AO2
KDVK 091915Z AUTO 28011G14KT 10SM BKN028 OVC034 M01/M06 A2983 RMK AO2
KDVK 091855Z AUTO 28007G16KT 10SM BKN028 OVC033 00/M06 A2983 RMK AO2
KDVK 091835Z AUTO 28007G18KT 10SM OVC031 00/M06 A2982 RMK AO2
KDVK 091815Z AUTO 25007G14KT 10SM OVC029 00/M07 A2982 RMK AO2
KDVK 091755Z AUTO 24009G17KT 10SM OVC035 00/M07 A2982 RMK AO2
KDVK 091735Z AUTO 25012G15KT 10SM BKN039 BKN046 OVC050 00/M07 A2982 RMK AO2
KDVK 091715Z AUTO 22010G16KT 10SM SCT044 SCT049 OVC060 00/M08 A2982 RMK AO2
KDVK 091655Z AUTO 22010KT 10SM SCT050 BKN060 OVC070 00/M08 A2983 RMK AO2
KDVK 091635Z AUTO 22009KT 10SM OVC070 00/M08 A2984 RMK AO2
KDVK 091615Z AUTO 22006KT 10SM BKN065 OVC080 00/M07 A2985 RMK AO2